Time;durP1;ratioP1;P1;durP2;ratioP2;P2;SDS_P1;SDS_P2;PMS_P1;PMS_P2;Temp;Humidity;BMP_temperature;BMP_pressure;BME280_temperature;BME280_humidity;BME280_pressure;Samples;Min_cycle;Max_cycle;Signal;HPM_P1;HPM_P2
2022/03/22 00:02:18;;;;;;;47.60;29.67;;;;;;;;;;5095901;28;20546;-69
2022/03/22 00:04:45;;;;;;;59.75;26.08;;;;;;;;;;5094836;28;20191;-69
2022/03/22 00:07:12;;;;;;;41.47;26.45;;;;;;;;;;5095268;28;20202;-69
2022/03/22 00:09:41;;;;;;;42.40;26.60;;;;;;;;;;5094702;28;20221;-69
2022/03/22 00:12:09;;;;;;;35.38;25.55;;;;;;;;;;5095215;28;20280;-69
2022/03/22 00:14:36;;;;;;;48.47;27.33;;;;;;;;;;5094656;28;20235;-69
2022/03/22 00:17:04;;;;;;;37.50;26.40;;;;;;;;;;5094754;28;20200;-69
2022/03/22 00:19:31;;;;;;;32.53;23.98;;;;;;;;;;5095302;28;20207;-69
2022/03/22 00:21:58;;;;;;;40.33;24.45;;;;;;;;;;5095063;28;20220;-69
2022/03/22 00:24:25;;;;;;;32.42;24.50;;;;;;;;;;5094552;28;20214;-69
2022/03/22 00:26:54;;;;;;;39.60;27.92;;;;;;;;;;5095092;28;20582;-69
2022/03/22 00:29:21;;;;;;;38.70;24.50;;;;;;;;;;5093514;28;20213;-69
2022/03/22 00:31:48;;;;;;;38.72;24.48;;;;;;;;;;5094698;28;20192;-69
2022/03/22 00:34:15;;;;;;;37.33;26.55;;;;;;;;;;5094388;28;20696;-69
2022/03/22 00:36:43;;;;;;;35.55;25.27;;;;;;;;;;5094763;28;20223;-69
2022/03/22 00:39:10;;;;;;;38.70;25.77;;;;;;;;;;5094713;28;20290;-69
2022/03/22 00:41:38;;;;;;;35.42;25.13;;;;;;;;;;5094659;28;20239;-69
2022/03/22 00:44:06;;;;;;;34.22;25.90;;;;;;;;;;5094446;28;20196;-69
2022/03/22 00:46:33;;;;;;;37.55;25.83;;;;;;;;;;5093982;28;20222;-69
2022/03/22 00:49:02;;;;;;;39.65;26.60;;;;;;;;;;5094804;28;20686;-69
2022/03/22 00:51:29;;;;;;;36.15;26.27;;;;;;;;;;5094340;28;20228;-69
2022/03/22 00:53:59;;;;;;;37.22;26.08;;;;;;;;;;5094378;28;20200;-69
2022/03/22 00:56:27;;;;;;;33.03;24.70;;;;;;;;;;5094321;28;20279;-69
2022/03/22 01:00:01;;;;;;;37.55;25.15;;;;;;;;;;5094547;28;20734;-69
2022/03/22 01:01:43;;;;;;;33.53;25.05;;;;;;;;;;5094016;28;20193;-69
2022/03/22 01:04:10;;;;;;;32.65;25.45;;;;;;;;;;5094352;28;20201;-69
2022/03/22 01:06:38;;;;;;;37.10;26.13;;;;;;;;;;5094111;28;20251;-69
2022/03/22 01:09:05;;;;;;;36.80;25.23;;;;;;;;;;5094032;28;20230;-69
2022/03/22 01:11:32;;;;;;;42.20;26.60;;;;;;;;;;5093946;28;20192;-69
2022/03/22 01:13:59;;;;;;;38.90;26.58;;;;;;;;;;5093993;28;20324;-69
2022/03/22 01:16:26;;;;;;;36.20;26.48;;;;;;;;;;5094200;28;20204;-69
2022/03/22 01:18:55;;;;;;;35.08;24.85;;;;;;;;;;5094702;28;20202;-69
2022/03/22 01:21:22;;;;;;;33.22;23.92;;;;;;;;;;5093919;28;20729;-69
2022/03/22 01:23:50;;;;;;;37.90;26.42;;;;;;;;;;5093626;28;20196;-69
2022/03/22 01:26:19;;;;;;;38.58;26.23;;;;;;;;;;5093790;28;20203;-69
2022/03/22 01:28:48;;;;;;;43.00;25.60;;;;;;;;;;5093773;28;20606;-69
2022/03/22 01:31:15;;;;;;;34.78;25.67;;;;;;;;;;5093645;28;20291;-69
2022/03/22 01:33:43;;;;;;;35.65;24.55;;;;;;;;;;5093454;28;20206;-69
2022/03/22 01:36:12;;;;;;;33.67;25.10;;;;;;;;;;5093702;28;20196;-69
2022/03/22 01:38:40;;;;;;;44.90;24.67;;;;;;;;;;5093543;28;20211;-69
2022/03/22 01:41:07;;;;;;;40.17;24.17;;;;;;;;;;5093116;28;20192;-69
2022/03/22 01:43:34;;;;;;;40.50;23.90;;;;;;;;;;5093356;28;20196;-69
2022/03/22 01:46:02;;;;;;;36.10;25.60;;;;;;;;;;5093468;28;20218;-69
2022/03/22 01:48:29;;;;;;;40.05;23.05;;;;;;;;;;5093537;28;20219;-69
2022/03/22 01:50:56;;;;;;;33.72;24.70;;;;;;;;;;5093847;28;20204;-69
2022/03/22 01:53:25;;;;;;;37.50;24.80;;;;;;;;;;5093651;28;20281;-69
2022/03/22 01:55:52;;;;;;;34.65;23.65;;;;;;;;;;5093805;28;20287;-69
2022/03/22 01:58:19;;;;;;;37.28;24.63;;;;;;;;;;5093543;28;20189;-69
2022/03/22 02:00:46;;;;;;;35.63;25.48;;;;;;;;;;5093572;28;20226;-69
2022/03/22 02:06:01;;;;;;;39.67;30.02;;;;;;;;;;5093236;28;20546;-69
2022/03/22 02:08:30;;;;;;;51.25;34.03;;;;;;;;;;5093034;28;20219;-69
2022/03/22 02:10:59;;;;;;;47.25;36.97;;;;;;;;;;5093335;28;20249;-69
2022/03/22 02:13:27;;;;;;;43.60;33.42;;;;;;;;;;5093071;28;20206;-69
2022/03/22 02:15:55;;;;;;;43.28;33.78;;;;;;;;;;5093020;28;20654;-69
2022/03/22 02:18:24;;;;;;;44.92;32.58;;;;;;;;;;5093295;28;20286;-69
2022/03/22 02:20:51;;;;;;;47.05;34.78;;;;;;;;;;5093104;28;20201;-69
2022/03/22 02:23:20;;;;;;;45.25;33.17;;;;;;;;;;5093364;28;20198;-69
2022/03/22 02:25:50;;;;;;;42.10;31.33;;;;;;;;;;5093394;28;20565;-69
2022/03/22 02:28:20;;;;;;;42.65;31.13;;;;;;;;;;5093122;28;20236;-69
2022/03/22 02:30:48;;;;;;;39.45;32.08;;;;;;;;;;5092821;28;20210;-69
2022/03/22 02:33:15;;;;;;;40.72;32.60;;;;;;;;;;5092865;28;20653;-69
2022/03/22 02:35:42;;;;;;;41.55;28.92;;;;;;;;;;5093130;28;20284;-68
2022/03/22 02:38:10;;;;;;;39.20;27.70;;;;;;;;;;5093316;28;20196;-68
2022/03/22 02:40:38;;;;;;;35.90;25.90;;;;;;;;;;5092658;28;20204;-69
2022/03/22 02:43:08;;;;;;;35.20;26.40;;;;;;;;;;5092769;28;20194;-69
2022/03/22 02:45:35;;;;;;;35.78;26.10;;;;;;;;;;5093178;28;20227;-69
2022/03/22 02:48:02;;;;;;;33.80;24.58;;;;;;;;;;5092711;28;20667;-69
2022/03/22 02:50:29;;;;;;;34.92;22.15;;;;;;;;;;5092586;28;20251;-69
2022/03/22 02:52:57;;;;;;;34.15;23.23;;;;;;;;;;5094234;28;20197;-69
2022/03/22 02:55:24;;;;;;;34.10;23.27;;;;;;;;;;5096691;28;20200;-69
2022/03/22 02:57:51;;;;;;;33.92;23.90;;;;;;;;;;5096564;28;20627;-69
2022/03/22 03:00:21;;;;;;;30.33;22.15;;;;;;;;;;5096250;28;20288;-69
2022/03/22 03:02:49;;;;;;;35.22;22.75;;;;;;;;;;5096173;28;20280;-69
2022/03/22 03:05:16;;;;;;;38.17;25.08;;;;;;;;;;5096846;28;20195;-69
2022/03/22 03:07:44;;;;;;;35.58;23.27;;;;;;;;;;5096381;28;20192;-69
2022/03/22 03:10:11;;;;;;;28.63;21.90;;;;;;;;;;5096017;28;20216;-69
2022/03/22 03:12:39;;;;;;;33.90;23.35;;;;;;;;;;5096483;28;20198;-69
2022/03/22 03:15:08;;;;;;;33.47;23.15;;;;;;;;;;5096313;28;20705;-69
2022/03/22 03:17:37;;;;;;;35.95;23.95;;;;;;;;;;5096193;28;20190;-69
2022/03/22 03:20:04;;;;;;;38.10;23.15;;;;;;;;;;5095873;28;20210;-69
2022/03/22 03:22:32;;;;;;;33.65;23.67;;;;;;;;;;5096431;28;20598;-69
2022/03/22 03:24:59;;;;;;;31.77;22.02;;;;;;;;;;5096117;28;20247;-69
2022/03/22 03:27:26;;;;;;;35.17;24.10;;;;;;;;;;5095674;28;20202;-69
2022/03/22 03:29:53;;;;;;;32.35;23.77;;;;;;;;;;5095653;28;20214;-69
2022/03/22 03:32:21;;;;;;;29.92;23.48;;;;;;;;;;5095887;28;20281;-69
2022/03/22 03:34:49;;;;;;;34.25;24.75;;;;;;;;;;5095983;28;20226;-69
2022/03/22 03:37:16;;;;;;;41.30;25.23;;;;;;;;;;5096322;28;20602;-68
2022/03/22 03:39:44;;;;;;;35.83;24.17;;;;;;;;;;5095812;28;20203;-69
2022/03/22 03:42:11;;;;;;;32.53;22.90;;;;;;;;;;5095859;28;20195;-69
2022/03/22 03:47:24;;;;;;;33.50;22.38;;;;;;;;;;5095455;28;20635;-69
2022/03/22 03:49:53;;;;;;;43.35;24.00;;;;;;;;;;5095655;28;20233;-69
2022/03/22 03:52:21;;;;;;;35.70;23.98;;;;;;;;;;5095542;28;20204;-69
2022/03/22 03:54:49;;;;;;;34.20;24.42;;;;;;;;;;5095240;28;20201;-69
2022/03/22 03:57:16;;;;;;;38.05;23.55;;;;;;;;;;5095100;28;20196;-69
2022/03/22 03:59:43;;;;;;;31.35;23.35;;;;;;;;;;5095525;28;20203;-69
2022/03/22 04:02:11;;;;;;;32.88;23.80;;;;;;;;;;5095395;28;20672;-69
2022/03/22 04:04:39;;;;;;;37.67;26.33;;;;;;;;;;5095399;28;20244;-69
2022/03/22 04:07:09;;;;;;;44.40;25.08;;;;;;;;;;5095504;28;20199;-69
2022/03/22 04:09:37;;;;;;;44.42;26.27;;;;;;;;;;5095179;28;20240;-68
2022/03/22 04:12:05;;;;;;;35.85;24.05;;;;;;;;;;5095278;28;20231;-69
2022/03/22 04:14:32;;;;;;;38.55;24.40;;;;;;;;;;5094826;28;20246;-69
2022/03/22 04:16:59;;;;;;;44.53;26.05;;;;;;;;;;5095109;28;20195;-69
2022/03/22 04:19:26;;;;;;;33.13;24.67;;;;;;;;;;5094780;28;20187;-69
2022/03/22 04:21:54;;;;;;;36.28;25.50;;;;;;;;;;5095142;28;20217;-69
2022/03/22 04:24:22;;;;;;;36.60;25.85;;;;;;;;;;5094701;28;20228;-69
2022/03/22 04:26:50;;;;;;;31.88;23.30;;;;;;;;;;5094893;28;20195;-69
2022/03/22 04:34:47;;;;;;;32.63;22.73;;;;;;;;;;5094605;28;20640;-69
2022/03/22 04:37:15;;;;;;;32.60;22.77;;;;;;;;;;5094688;28;20199;-69
2022/03/22 04:39:45;;;;;;;36.10;25.25;;;;;;;;;;5095020;28;20289;-69
2022/03/22 04:42:13;;;;;;;27.70;23.38;;;;;;;;;;5094888;28;20195;-69
2022/03/22 04:44:40;;;;;;;32.20;23.58;;;;;;;;;;5094282;28;20198;-69
2022/03/22 04:47:08;;;;;;;35.45;23.85;;;;;;;;;;5094756;28;20185;-70
2022/03/22 04:49:35;;;;;;;34.85;23.75;;;;;;;;;;5094343;28;20272;-69
2022/03/22 04:57:34;;;;;;;34.85;23.95;;;;;;;;;;5094133;28;20228;-69
2022/03/22 05:00:01;;;;;;;36.60;23.83;;;;;;;;;;5094942;28;20573;-69
2022/03/22 05:02:28;;;;;;;31.88;24.25;;;;;;;;;;5094518;28;20198;-69
2022/03/22 05:04:55;;;;;;;34.70;22.38;;;;;;;;;;5094427;28;20191;-68
2022/03/22 05:07:22;;;;;;;33.10;23.70;;;;;;;;;;5094238;28;20204;-69
2022/03/22 05:09:51;;;;;;;35.20;25.08;;;;;;;;;;5093975;28;20223;-68
2022/03/22 05:12:18;;;;;;;35.45;25.30;;;;;;;;;;5094599;28;20196;-69
2022/03/22 05:14:50;;;;;;;36.80;25.20;;;;;;;;;;5093927;28;20199;-67
2022/03/22 05:17:21;;;;;;;37.38;24.38;;;;;;;;;;5094057;28;20573;-69
2022/03/22 05:19:49;;;;;;;37.58;25.05;;;;;;;;;;5094060;28;20196;-69
2022/03/22 05:22:16;;;;;;;32.95;22.45;;;;;;;;;;5094253;28;20227;-70
2022/03/22 05:24:44;;;;;;;36.10;24.30;;;;;;;;;;5093146;28;20192;-70
2022/03/22 05:27:13;;;;;;;30.70;21.70;;;;;;;;;;5092334;28;20199;-69
2022/03/22 05:29:40;;;;;;;36.92;23.83;;;;;;;;;;5092231;28;20257;-69
2022/03/22 05:32:07;;;;;;;35.67;23.30;;;;;;;;;;5092528;28;20235;-70
2022/03/22 05:34:35;;;;;;;35.22;24.23;;;;;;;;;;5092590;28;20198;-69
2022/03/22 05:37:02;;;;;;;34.90;24.83;;;;;;;;;;5092971;28;20194;-70
2022/03/22 05:39:30;;;;;;;37.67;23.65;;;;;;;;;;5092763;28;20199;-69
2022/03/22 05:41:57;;;;;;;32.25;24.95;;;;;;;;;;5093193;28;20198;-70
2022/03/22 05:44:26;;;;;;;41.03;23.90;;;;;;;;;;5092531;28;20282;-69
2022/03/22 05:46:58;;;;;;;38.05;23.05;;;;;;;;;;5093304;28;20248;-69
2022/03/22 05:49:25;;;;;;;40.17;22.55;;;;;;;;;;5093385;28;20651;-70
2022/03/22 05:51:53;;;;;;;33.17;23.70;;;;;;;;;;5093638;28;20198;-70
2022/03/22 05:54:21;;;;;;;36.28;24.85;;;;;;;;;;5093093;28;20662;-70
2022/03/22 05:56:48;;;;;;;33.80;23.98;;;;;;;;;;5093352;28;20204;-70
2022/03/22 05:59:15;;;;;;;34.65;23.52;;;;;;;;;;5093071;28;20196;-69
2022/03/22 06:01:44;;;;;;;35.17;23.60;;;;;;;;;;5093880;28;20252;-69
2022/03/22 06:04:12;;;;;;;34.75;23.15;;;;;;;;;;5092737;28;20202;-69
2022/03/22 06:06:39;;;;;;;37.50;25.52;;;;;;;;;;5093137;28;20201;-70
2022/03/22 06:09:06;;;;;;;36.13;23.17;;;;;;;;;;5093671;28;20614;-70
2022/03/22 06:11:35;;;;;;;36.65;24.40;;;;;;;;;;5093694;28;20637;-70
2022/03/22 06:14:03;;;;;;;31.55;23.90;;;;;;;;;;5093407;28;20198;-70
2022/03/22 06:16:30;;;;;;;42.15;24.13;;;;;;;;;;5093076;28;20210;-70
2022/03/22 06:18:59;;;;;;;31.45;23.42;;;;;;;;;;5092923;28;20291;-70
2022/03/22 06:21:27;;;;;;;45.85;26.23;;;;;;;;;;5093338;28;20206;-70
2022/03/22 06:23:54;;;;;;;41.83;22.40;;;;;;;;;;5093315;28;20196;-71
2022/03/22 06:26:21;;;;;;;35.15;22.77;;;;;;;;;;5093278;28;20207;-70
2022/03/22 06:28:49;;;;;;;37.80;25.55;;;;;;;;;;5096481;28;20196;-70
2022/03/22 06:31:17;;;;;;;33.92;24.85;;;;;;;;;;5097049;28;20225;-73
2022/03/22 06:33:44;;;;;;;33.75;23.50;;;;;;;;;;5097073;28;20591;-69
2022/03/22 06:36:13;;;;;;;39.08;24.80;;;;;;;;;;5096738;28;20192;-69
2022/03/22 06:38:41;;;;;;;35.28;25.13;;;;;;;;;;5096739;28;20684;-69
2022/03/22 06:41:09;;;;;;;42.78;27.38;;;;;;;;;;5096961;28;20204;-69
2022/03/22 06:43:37;;;;;;;39.42;25.55;;;;;;;;;;5096565;28;20284;-69
2022/03/22 06:46:04;;;;;;;40.38;25.70;;;;;;;;;;5096649;28;20232;-69
2022/03/22 06:48:31;;;;;;;38.45;25.92;;;;;;;;;;5096995;28;20221;-69
2022/03/22 06:50:59;;;;;;;34.72;24.50;;;;;;;;;;5096351;28;20216;-69
2022/03/22 06:53:28;;;;;;;35.38;24.52;;;;;;;;;;5096924;28;20194;-69
2022/03/22 06:55:55;;;;;;;49.85;29.20;;;;;;;;;;5096367;28;20663;-69
2022/03/22 06:58:24;;;;;;;40.45;27.17;;;;;;;;;;5096641;28;20221;-69
2022/03/22 07:00:52;;;;;;;33.83;22.08;;;;;;;;;;5096226;28;20198;-69
2022/03/22 07:03:19;;;;;;;33.72;23.25;;;;;;;;;;5096153;28;20195;-69
2022/03/22 07:05:46;;;;;;;39.22;22.73;;;;;;;;;;5096416;28;20195;-69
2022/03/22 07:08:14;;;;;;;32.08;23.75;;;;;;;;;;5096485;28;20197;-69
2022/03/22 07:11:47;;;;;;;39.65;23.48;;;;;;;;;;5096046;28;20225;-70
2022/03/22 07:13:32;;;;;;;39.08;22.63;;;;;;;;;;5096444;28;20188;-70
2022/03/22 07:16:00;;;;;;;32.40;21.73;;;;;;;;;;5096711;28;20621;-69
2022/03/22 07:18:28;;;;;;;33.05;22.85;;;;;;;;;;5096397;28;20237;-68
2022/03/22 07:20:55;;;;;;;28.40;21.85;;;;;;;;;;5095890;28;20209;-69
2022/03/22 07:23:22;;;;;;;32.42;22.73;;;;;;;;;;5096029;28;20268;-69
2022/03/22 07:25:51;;;;;;;33.60;23.67;;;;;;;;;;5096161;28;20331;-69
2022/03/22 07:28:18;;;;;;;31.73;22.67;;;;;;;;;;5096397;28;20279;-68
2022/03/22 07:30:45;;;;;;;33.83;22.23;;;;;;;;;;5096015;28;20219;-68
2022/03/22 07:33:13;;;;;;;36.30;24.67;;;;;;;;;;5095845;28;20198;-70
2022/03/22 07:35:40;;;;;;;32.28;21.85;;;;;;;;;;5095402;28;20291;-68
2022/03/22 07:38:08;;;;;;;36.05;25.95;;;;;;;;;;5095279;28;20209;-69
2022/03/22 07:40:35;;;;;;;34.90;23.52;;;;;;;;;;5095472;28;20234;-70
2022/03/22 07:43:03;;;;;;;40.35;24.17;;;;;;;;;;5095954;28;20287;-69
2022/03/22 07:45:32;;;;;;;29.52;21.73;;;;;;;;;;5095507;28;20694;-69
2022/03/22 07:47:59;;;;;;;39.40;22.73;;;;;;;;;;5095461;28;20669;-69
2022/03/22 07:53:12;;;;;;;31.55;21.70;;;;;;;;;;5095461;28;20395;-69
2022/03/22 07:55:40;;;;;;;37.85;23.40;;;;;;;;;;5095507;28;20201;-69
2022/03/22 07:58:09;;;;;;;29.67;20.80;;;;;;;;;;5095488;28;20200;-69
2022/03/22 08:00:43;;;;;;;37.42;21.50;;;;;;;;;;5095497;28;20208;-69
2022/03/22 08:03:13;;;;;;;47.58;22.63;;;;;;;;;;5095198;28;20194;-69
2022/03/22 08:05:41;;;;;;;46.30;26.05;;;;;;;;;;5094964;28;20555;-69
2022/03/22 08:08:08;;;;;;;44.78;22.60;;;;;;;;;;5095376;28;20201;-69
2022/03/22 08:10:35;;;;;;;30.67;21.25;;;;;;;;;;5095123;28;20218;-70
2022/03/22 08:13:06;;;;;;;36.65;20.35;;;;;;;;;;5095267;28;20228;-69
2022/03/22 08:15:34;;;;;;;34.05;20.30;;;;;;;;;;5095445;28;20197;-70
2022/03/22 08:18:01;;;;;;;24.92;18.83;;;;;;;;;;5095227;28;20222;-69
2022/03/22 08:20:30;;;;;;;31.13;18.77;;;;;;;;;;5095716;28;20212;-69
2022/03/22 08:22:58;;;;;;;30.45;17.90;;;;;;;;;;5094993;28;20207;-69
2022/03/22 08:25:27;;;;;;;23.00;16.30;;;;;;;;;;5094545;28;20216;-69
2022/03/22 08:27:54;;;;;;;24.60;17.67;;;;;;;;;;5095252;28;20917;-69
2022/03/22 08:30:21;;;;;;;23.67;17.03;;;;;;;;;;5095120;28;20447;-69
2022/03/22 08:32:51;;;;;;;25.63;15.67;;;;;;;;;;5094860;28;20794;-69
2022/03/22 08:35:18;;;;;;;26.92;15.70;;;;;;;;;;5094744;28;20436;-69
2022/03/22 08:37:45;;;;;;;22.70;16.73;;;;;;;;;;5094419;28;20204;-69
2022/03/22 08:40:14;;;;;;;28.50;16.37;;;;;;;;;;5094367;28;20448;-69
2022/03/22 08:42:43;;;;;;;21.33;15.80;;;;;;;;;;5094294;28;20458;-70
2022/03/22 08:45:11;;;;;;;19.77;16.87;;;;;;;;;;5094268;28;20515;-70
2022/03/22 08:47:40;;;;;;;22.33;16.03;;;;;;;;;;5094166;28;20792;-70
2022/03/22 08:50:09;;;;;;;23.63;14.90;;;;;;;;;;5093546;28;20452;-69
2022/03/22 08:52:41;;;;;;;16.60;14.40;;;;;;;;;;5094016;28;20570;-69
2022/03/22 08:55:11;;;;;;;21.90;15.83;;;;;;;;;;5094903;28;20432;-70
2022/03/22 08:57:39;;;;;;;23.80;17.13;;;;;;;;;;5094337;28;20439;-69
2022/03/22 09:00:09;;;;;;;20.33;15.27;;;;;;;;;;5094270;28;20436;-70
2022/03/22 09:02:36;;;;;;;30.20;18.73;;;;;;;;;;5094198;28;20497;-70
2022/03/22 09:07:50;;;;;;;25.30;17.47;;;;;;;;;;5094027;28;20909;-70
2022/03/22 09:10:18;;;;;;;24.90;14.47;;;;;;;;;;5094052;28;20472;-70
2022/03/22 09:12:45;;;;;;;16.13;14.17;;;;;;;;;;5094038;28;20847;-70
2022/03/22 09:15:13;;;;;;;20.53;14.57;;;;;;;;;;5094243;28;20448;-70
2022/03/22 09:17:41;;;;;;;17.40;14.13;;;;;;;;;;5094292;28;20439;-70
2022/03/22 09:20:12;;;;;;;15.53;12.80;;;;;;;;;;5094100;28;20436;-70
2022/03/22 09:22:39;;;;;;;19.57;13.93;;;;;;;;;;5094207;28;20464;-70
2022/03/22 09:25:08;;;;;;;22.87;15.20;;;;;;;;;;5094266;28;20805;-70
2022/03/22 09:27:35;;;;;;;19.70;15.33;;;;;;;;;;5093809;28;20440;-70
2022/03/22 09:30:03;;;;;;;20.43;13.80;;;;;;;;;;5093855;28;20741;-70
2022/03/22 09:32:30;;;;;;;18.20;14.47;;;;;;;;;;5093336;28;20483;-70
2022/03/22 09:34:59;;;;;;;18.83;13.77;;;;;;;;;;5093778;28;20471;-70
2022/03/22 09:37:27;;;;;;;19.30;14.43;;;;;;;;;;5093522;28;20436;-70
2022/03/22 09:39:56;;;;;;;16.60;14.80;;;;;;;;;;5093866;28;20514;-70
2022/03/22 09:42:27;;;;;;;21.20;15.90;;;;;;;;;;5093585;28;20451;-70
2022/03/22 09:44:54;;;;;;;19.97;14.87;;;;;;;;;;5093786;28;20471;-70
2022/03/22 09:47:21;;;;;;;17.00;14.10;;;;;;;;;;5093657;28;20797;-70
2022/03/22 09:49:49;;;;;;;22.90;14.10;;;;;;;;;;5093329;28;20451;-70
2022/03/22 09:52:16;;;;;;;28.13;17.63;;;;;;;;;;5093450;28;20473;-70
2022/03/22 09:54:44;;;;;;;22.00;13.83;;;;;;;;;;5093609;28;20460;-70
2022/03/22 09:57:11;;;;;;;20.97;14.13;;;;;;;;;;5093186;28;20444;-69
2022/03/22 09:59:39;;;;;;;20.13;14.67;;;;;;;;;;5093732;28;20442;-70
2022/03/22 10:02:08;;;;;;;18.20;14.07;;;;;;;;;;5095251;28;20459;-70
2022/03/22 10:04:38;;;;;;;17.57;15.10;;;;;;;;;;5097462;28;20443;-70
2022/03/22 10:07:06;;;;;;;21.70;15.10;;;;;;;;;;5098027;28;20506;-70
2022/03/22 10:09:36;;;;;;;18.13;15.13;;;;;;;;;;5097359;28;20441;-69
2022/03/22 10:12:03;;;;;;;18.97;14.63;;;;;;;;;;5097306;28;20901;-70
2022/03/22 10:14:34;;;;;;;17.27;14.13;;;;;;;;;;5097945;28;20439;-70
2022/03/22 10:17:09;;;;;;;23.63;14.50;;;;;;;;;;5097220;28;20491;-70
2022/03/22 10:19:42;;;;;;;16.50;13.57;;;;;;;;;;5097524;28;20783;-70
2022/03/22 10:22:10;;;;;;;17.33;14.27;;;;;;;;;;5096898;28;20439;-70
2022/03/22 10:24:43;;;;;;;17.93;13.50;;;;;;;;;;5097174;28;20445;-70
2022/03/22 10:27:19;;;;;;;18.90;14.97;;;;;;;;;;5096885;28;20442;-70
2022/03/22 10:29:47;;;;;;;20.87;14.53;;;;;;;;;;5097422;28;20431;-70
2022/03/22 10:32:15;;;;;;;15.37;13.73;;;;;;;;;;5097299;28;20476;-70
2022/03/22 10:34:43;;;;;;;20.33;15.67;;;;;;;;;;5097169;28;20514;-69
2022/03/22 10:37:10;;;;;;;23.43;14.90;;;;;;;;;;5096747;28;20484;-70
2022/03/22 10:39:41;;;;;;;17.73;13.37;;;;;;;;;;5096969;28;20442;-70
2022/03/22 10:42:09;;;;;;;18.00;13.17;;;;;;;;;;5096863;28;20499;-70
2022/03/22 10:44:37;;;;;;;17.23;14.00;;;;;;;;;;5096212;28;20444;-70
2022/03/22 10:47:05;;;;;;;17.10;14.53;;;;;;;;;;5096713;28;20467;-70
2022/03/22 10:49:33;;;;;;;27.07;15.43;;;;;;;;;;5096703;28;20618;-70
2022/03/22 10:52:00;;;;;;;19.53;14.40;;;;;;;;;;5096467;28;20511;-68
2022/03/22 10:54:28;;;;;;;20.80;14.47;;;;;;;;;;5096113;28;20446;-69
2022/03/22 10:56:56;;;;;;;19.37;15.87;;;;;;;;;;5096720;28;20448;-69
2022/03/22 10:59:24;;;;;;;22.10;15.77;;;;;;;;;;5096380;28;20444;-69
2022/03/22 11:01:55;;;;;;;21.20;15.47;;;;;;;;;;5096542;28;20443;-69
2022/03/22 11:04:23;;;;;;;19.33;15.40;;;;;;;;;;5096378;28;20431;-69
2022/03/22 11:06:51;;;;;;;19.63;15.67;;;;;;;;;;5096342;28;20464;-69
2022/03/22 11:09:20;;;;;;;21.20;15.53;;;;;;;;;;5095834;28;20967;-69
2022/03/22 11:11:50;;;;;;;25.53;16.60;;;;;;;;;;5096230;28;20534;-69
2022/03/22 11:14:18;;;;;;;18.40;15.70;;;;;;;;;;5095040;28;20444;-69
2022/03/22 11:16:47;;;;;;;23.80;16.43;;;;;;;;;;5096266;28;20467;-69
2022/03/22 11:19:16;;;;;;;20.47;15.40;;;;;;;;;;5095931;28;20444;-69
2022/03/22 11:21:43;;;;;;;21.23;16.60;;;;;;;;;;5096109;28;20767;-70
2022/03/22 11:24:13;;;;;;;23.77;18.60;;;;;;;;;;5095587;28;20454;-69
2022/03/22 11:26:42;;;;;;;26.10;16.83;;;;;;;;;;5095705;28;20906;-69
2022/03/22 11:29:10;;;;;;;24.57;17.13;;;;;;;;;;5095996;28;20551;-69
2022/03/22 11:31:38;;;;;;;24.23;16.43;;;;;;;;;;5095496;28;20558;-69
2022/03/22 11:34:13;;;;;;;23.80;16.90;;;;;;;;;;5095672;28;20539;-69
2022/03/22 11:36:43;;;;;;;31.83;21.17;;;;;;;;;;5095310;28;20440;-69
2022/03/22 11:39:11;;;;;;;34.77;24.50;;;;;;;;;;5095670;28;20455;-69
2022/03/22 11:44:40;;;;;;;22.50;18.43;;;;;;;;;;5095101;28;20466;-68
2022/03/22 11:47:08;;;;;;;23.53;17.70;;;;;;;;;;5096260;28;20425;-69
2022/03/22 11:49:49;;;;;;;26.70;17.67;;;;;;;;;;5095568;28;20435;-69
2022/03/22 11:52:17;;;;;;;28.93;17.40;;;;;;;;;;5095457;28;20514;-69
2022/03/22 11:54:54;;;;;;;30.50;18.60;;;;;;;;;;5095229;28;20490;-69
2022/03/22 11:57:23;;;;;;;25.43;18.70;;;;;;;;;;5095589;28;20428;-69
2022/03/22 11:59:52;;;;;;;24.13;17.93;;;;;;;;;;5095381;28;20449;-69
2022/03/22 12:02:20;;;;;;;24.20;18.10;;;;;;;;;;5094936;28;20486;-69
2022/03/22 12:04:50;;;;;;;27.03;18.50;;;;;;;;;;5094997;28;20444;-69
2022/03/22 12:07:22;;;;;;;27.43;18.53;;;;;;;;;;5095658;28;20473;-68
2022/03/22 12:09:49;;;;;;;23.07;18.47;;;;;;;;;;5095142;28;20451;-69
2022/03/22 12:12:17;;;;;;;26.13;19.13;;;;;;;;;;5094934;28;20565;-69
2022/03/22 12:14:48;;;;;;;30.97;18.47;;;;;;;;;;5094790;28;20500;-69
2022/03/22 12:17:15;;;;;;;28.13;18.70;;;;;;;;;;5094587;28;20461;-70
2022/03/22 12:19:43;;;;;;;26.63;19.07;;;;;;;;;;5094820;28;20983;-69
2022/03/22 12:22:10;;;;;;;33.00;18.90;;;;;;;;;;5095416;28;20431;-70
2022/03/22 12:24:37;;;;;;;24.87;18.97;;;;;;;;;;5094378;28;20455;-70
2022/03/22 12:27:06;;;;;;;31.83;19.10;;;;;;;;;;5094394;28;20439;-70
2022/03/22 12:29:38;;;;;;;28.67;19.40;;;;;;;;;;5094303;28;20479;-69
2022/03/22 12:32:07;;;;;;;29.30;18.40;;;;;;;;;;5094772;28;20463;-69
2022/03/22 12:34:39;;;;;;;26.10;17.70;;;;;;;;;;5094608;28;20442;-80
2022/03/22 12:37:08;;;;;;;24.33;18.33;;;;;;;;;;5094814;28;20533;-72
2022/03/22 12:39:35;;;;;;;28.17;18.50;;;;;;;;;;5094829;28;20777;-75
2022/03/22 12:42:03;;;;;;;30.03;19.00;;;;;;;;;;5094204;28;20525;-74
2022/03/22 12:44:31;;;;;;;23.20;19.17;;;;;;;;;;5093999;28;20451;-74
2022/03/22 12:46:58;;;;;;;25.43;16.43;;;;;;;;;;5094564;28;20777;-75
2022/03/22 12:49:30;;;;;;;27.13;17.40;;;;;;;;;;5093937;28;20434;-75
2022/03/22 12:51:59;;;;;;;23.80;15.50;;;;;;;;;;5095089;28;20463;-75
2022/03/22 12:54:31;;;;;;;23.10;15.23;;;;;;;;;;5094030;28;20443;-74
2022/03/22 12:57:07;;;;;;;25.97;16.50;;;;;;;;;;5093900;28;20469;-75
2022/03/22 12:59:36;;;;;;;21.50;15.43;;;;;;;;;;5093775;28;20420;-73
2022/03/22 13:02:06;;;;;;;21.03;15.97;;;;;;;;;;5094002;28;20803;-73
2022/03/22 13:04:36;;;;;;;21.20;14.70;;;;;;;;;;5094195;28;20505;-73
2022/03/22 13:07:06;;;;;;;23.03;15.23;;;;;;;;;;5094394;28;20533;-73
2022/03/22 13:12:19;;;;;;;23.83;13.97;;;;;;;;;;5093830;28;20549;-73
2022/03/22 13:17:32;;;;;;;28.23;15.73;;;;;;;;;;5092606;28;20796;-73
2022/03/22 13:19:59;;;;;;;27.73;16.63;;;;;;;;;;5092543;28;20452;-73
2022/03/22 13:22:28;;;;;;;24.40;16.97;;;;;;;;;;5092679;28;20444;-74
2022/03/22 13:25:11;;;;;;;21.20;15.20;;;;;;;;;;5092935;28;20440;-73
2022/03/22 13:27:39;;;;;;;23.57;16.37;;;;;;;;;;5092754;28;20830;-74
2022/03/22 13:30:18;;;;;;;25.30;15.50;;;;;;;;;;5092916;28;20448;-74
2022/03/22 13:32:45;;;;;;;21.00;14.80;;;;;;;;;;5093618;28;20535;-73
2022/03/22 13:35:13;;;;;;;26.27;16.10;;;;;;;;;;5093419;28;20509;-74
2022/03/22 13:37:47;;;;;;;27.40;16.77;;;;;;;;;;5093348;28;20524;-74
2022/03/22 13:40:19;;;;;;;23.47;16.60;;;;;;;;;;5093339;28;20782;-74
2022/03/22 13:42:57;;;;;;;21.33;14.20;;;;;;;;;;5094033;28;20429;-74
2022/03/22 13:45:24;;;;;;;24.07;16.30;;;;;;;;;;5093517;28;20568;-74
2022/03/22 13:47:54;;;;;;;22.83;15.40;;;;;;;;;;5093222;28;20468;-73
2022/03/22 13:50:22;;;;;;;24.03;18.63;;;;;;;;;;5093212;28;20447;-74
2022/03/22 13:53:03;;;;;;;28.33;20.40;;;;;;;;;;5092667;28;20476;-73
2022/03/22 13:55:30;;;;;;;27.20;15.70;;;;;;;;;;5092988;28;20508;-74
2022/03/22 13:57:58;;;;;;;25.20;15.30;;;;;;;;;;5093276;28;20518;-74
2022/03/22 14:00:26;;;;;;;25.63;16.57;;;;;;;;;;5093369;28;20445;-74
2022/03/22 14:02:53;;;;;;;25.70;17.80;;;;;;;;;;5092795;28;20443;-74
2022/03/22 14:05:20;;;;;;;20.47;15.50;;;;;;;;;;5093380;28;20523;-74
2022/03/22 14:07:51;;;;;;;22.70;17.30;;;;;;;;;;5093090;28;20445;-74
2022/03/22 14:10:20;;;;;;;26.97;18.47;;;;;;;;;;5093052;28;20447;-75
2022/03/22 14:12:47;;;;;;;33.17;20.90;;;;;;;;;;5092937;28;20571;-74
2022/03/22 14:15:14;;;;;;;28.57;17.27;;;;;;;;;;5091706;28;20792;-74
2022/03/22 14:17:44;;;;;;;23.80;18.20;;;;;;;;;;5093038;28;20940;-74
2022/03/22 14:20:13;;;;;;;23.87;16.30;;;;;;;;;;5092325;28;20454;-74
2022/03/22 14:22:41;;;;;;;22.77;15.17;;;;;;;;;;5092745;28;20444;-74
2022/03/22 14:25:09;;;;;;;21.23;15.63;;;;;;;;;;5092413;28;20531;-74
2022/03/22 14:27:38;;;;;;;24.23;16.77;;;;;;;;;;5092174;28;20935;-74
2022/03/22 14:30:06;;;;;;;27.40;17.80;;;;;;;;;;5092439;28;21021;-74
2022/03/22 14:32:34;;;;;;;25.80;16.60;;;;;;;;;;5092976;28;20876;-71
2022/03/22 14:37:47;;;;;;;20.43;15.20;;;;;;;;;;5092639;28;20940;-67
2022/03/22 14:40:15;;;;;;;20.93;16.13;;;;;;;;;;5092204;28;20970;-68
2022/03/22 14:42:43;;;;;;;21.10;14.40;;;;;;;;;;5092569;28;20476;-67
2022/03/22 14:45:12;;;;;;;26.53;16.80;;;;;;;;;;5091855;28;20531;-67
2022/03/22 14:47:39;;;;;;;25.73;15.63;;;;;;;;;;5092271;28;20437;-68
2022/03/22 14:50:08;;;;;;;19.03;12.67;;;;;;;;;;5095841;28;20873;-66
2022/03/22 14:55:25;;;;;;;23.17;12.70;;;;;;;;;;5037522;28;20446;-67
2022/03/22 15:00:40;;;;;;;18.00;13.20;;;;;;;;;;5096155;28;20463;-68
2022/03/22 15:03:07;;;;;;;18.93;11.43;;;;;;;;;;5096197;28;20441;-66